Time;durP1;ratioP1;P1;durP2;ratioP2;P2;SDS_P1;SDS_P2;PMS_P1;PMS_P2;Temp;Humidity;BMP_temperature;BMP_pressure;BME280_temperature;BME280_humidity;BME280_pressure;Samples;Min_cycle;Max_cycle;Signal;HPM_P1;HPM_P2
2023/12/18 00:00:09;;;;;;;17.83;10.25;;;8.10;91.10;;;;;;5056304;28;20058;-49
2023/12/18 00:02:34;;;;;;;19.23;10.30;;;8.10;91.10;;;;;;5073865;28;20044;-51
2023/12/18 00:05:02;;;;;;;20.75;9.98;;;8.10;91.10;;;;;;5056022;28;20036;-49
2023/12/18 00:07:28;;;;;;;24.05;11.23;;;8.00;91.20;;;;;;5053793;28;20068;-50
2023/12/18 00:09:55;;;;;;;19.73;10.88;;;8.10;91.30;;;;;;5069805;28;20043;-49
2023/12/18 00:12:21;;;;;;;23.80;11.27;;;8.10;91.30;;;;;;5073948;28;20035;-48
2023/12/18 00:14:46;;;;;;;17.70;9.90;;;8.10;91.40;;;;;;5073854;28;20335;-48
2023/12/18 00:17:15;;;;;;;24.90;10.43;;;8.10;91.30;;;;;;5074051;28;20633;-50
2023/12/18 00:19:40;;;;;;;21.92;10.35;;;8.10;91.30;;;;;;5073676;28;20448;-51
2023/12/18 00:22:08;;;;;;;23.42;10.85;;;8.10;91.30;;;;;;5073532;28;20162;-48
2023/12/18 00:24:33;;;;;;;19.25;11.52;;;8.10;91.30;;;;;;5070652;28;20368;-48
2023/12/18 00:27:00;;;;;;;20.42;9.65;;;8.00;91.40;;;;;;5080796;28;20025;-51
2023/12/18 00:29:27;;;;;;;19.70;10.57;;;8.10;91.40;;;;;;5073525;28;20049;-48
2023/12/18 00:31:53;;;;;;;22.83;11.95;;;8.10;91.40;;;;;;5073521;28;20338;-50
2023/12/18 00:34:22;;;;;;;22.80;10.73;;;8.00;91.50;;;;;;5073579;28;20048;-50
2023/12/18 00:36:49;;;;;;;19.85;12.52;;;8.10;91.40;;;;;;5073837;28;20013;-48
2023/12/18 00:39:15;;;;;;;25.50;11.38;;;8.00;91.50;;;;;;5073269;28;20021;-51
2023/12/18 00:41:42;;;;;;;37.38;12.65;;;8.10;91.50;;;;;;5073319;28;20452;-49
2023/12/18 00:44:09;;;;;;;23.83;11.45;;;8.10;91.60;;;;;;5051660;28;20036;-48
2023/12/18 00:46:38;;;;;;;22.05;9.73;;;8.10;91.50;;;;;;5073134;28;20123;-50
2023/12/18 00:49:05;;;;;;;23.73;11.10;;;8.00;91.50;;;;;;5073379;28;20062;-51
2023/12/18 00:51:32;;;;;;;24.30;10.85;;;8.00;91.50;;;;;;5072921;28;20098;-48
2023/12/18 00:53:59;;;;;;;24.90;11.13;;;8.00;91.50;;;;;;5073147;28;20020;-49
2023/12/18 00:56:26;;;;;;;21.75;10.70;;;8.10;91.50;;;;;;5072622;28;20024;-55
2023/12/18 00:58:53;;;;;;;28.50;10.98;;;8.00;91.40;;;;;;5073228;28;20029;-48
2023/12/18 01:01:21;;;;;;;24.00;11.13;;;8.00;91.40;;;;;;5072542;28;20044;-51
2023/12/18 01:03:47;;;;;;;22.52;11.65;;;8.00;91.50;;;;;;5073230;28;20500;-48
2023/12/18 01:06:15;;;;;;;20.98;12.45;;;8.00;91.60;;;;;;5054032;28;20029;-51
2023/12/18 01:08:43;;;;;;;24.40;12.38;;;8.00;91.60;;;;;;5073452;28;20060;-53
2023/12/18 01:11:11;;;;;;;20.15;10.63;;;8.00;91.70;;;;;;5072596;28;20587;-49
2023/12/18 01:13:36;;;;;;;23.08;11.77;;;8.00;91.70;;;;;;5072325;28;20619;-52
2023/12/18 01:16:04;;;;;;;25.17;11.65;;;8.00;91.70;;;;;;5054847;28;20115;-48
2023/12/18 01:18:31;;;;;;;22.85;13.45;;;8.00;91.70;;;;;;5072726;28;20024;-48
2023/12/18 01:21:03;;;;;;;25.98;12.13;;;8.00;91.70;;;;;;5072077;28;20090;-51
2023/12/18 01:23:29;;;;;;;27.13;12.40;;;7.90;91.70;;;;;;5078139;28;20059;-50
2023/12/18 01:25:57;;;;;;;25.40;11.65;;;7.90;91.70;;;;;;5092286;28;20020;-49
2023/12/18 01:28:23;;;;;;;24.08;12.57;;;8.00;91.80;;;;;;5074453;28;20028;-50
2023/12/18 01:30:49;;;;;;;26.08;12.63;;;7.90;91.70;;;;;;5088511;28;20430;-48
2023/12/18 01:33:16;;;;;;;23.95;13.60;;;7.90;91.80;;;;;;5071379;28;20033;-49
2023/12/18 01:35:41;;;;;;;28.42;11.85;;;7.90;91.90;;;;;;5072686;28;20024;-49
2023/12/18 01:38:09;;;;;;;22.27;11.57;;;8.00;91.90;;;;;;5055299;28;20402;-48
2023/12/18 01:40:35;;;;;;;23.20;12.15;;;8.00;91.90;;;;;;5072433;28;20029;-49
2023/12/18 01:43:21;;;;;;;30.80;11.52;;;7.90;91.90;;;;;;5072579;28;20024;-48
2023/12/18 01:45:54;;;;;;;20.33;11.45;;;8.00;92.00;;;;;;5054565;28;20032;-48
2023/12/18 01:48:20;;;;;;;21.15;11.23;;;8.00;92.00;;;;;;5072676;28;20109;-49
2023/12/18 01:50:47;;;;;;;18.45;11.77;;;8.00;92.00;;;;;;5072482;28;20066;-49
2023/12/18 01:53:14;;;;;;;21.52;11.82;;;8.00;92.00;;;;;;5072402;28;20032;-48
2023/12/18 01:55:39;;;;;;;23.52;10.70;;;8.00;91.90;;;;;;5072705;28;20031;-48
2023/12/18 01:58:05;;;;;;;20.77;11.85;;;8.00;92.00;;;;;;5072508;28;20041;-48
2023/12/18 02:00:34;;;;;;;20.20;10.98;;;8.00;92.00;;;;;;5072820;28;20453;-48
2023/12/18 02:03:01;;;;;;;21.15;11.38;;;8.00;92.00;;;;;;5072272;28;20039;-49
2023/12/18 02:05:28;;;;;;;20.65;11.27;;;8.00;92.00;;;;;;5072055;28;20039;-51
2023/12/18 02:07:58;;;;;;;21.60;11.75;;;8.00;92.00;;;;;;5072493;28;20584;-48
2023/12/18 02:10:24;;;;;;;23.75;12.57;;;8.00;91.90;;;;;;5076615;28;20032;-49
2023/12/18 02:12:54;;;;;;;21.40;12.35;;;8.00;91.90;;;;;;5058231;28;20047;-50
2023/12/18 02:15:22;;;;;;;21.05;12.43;;;8.00;91.90;;;;;;5076303;28;20142;-50
2023/12/18 02:17:50;;;;;;;19.67;11.23;;;8.10;91.90;;;;;;5075932;28;20032;-48
2023/12/18 02:20:18;;;;;;;18.50;10.50;;;8.00;91.90;;;;;;5076574;28;20358;-49
2023/12/18 02:23:03;;;;;;;21.60;11.50;;;8.00;92.00;;;;;;5075971;28;20109;-48
2023/12/18 02:25:30;;;;;;;25.33;11.73;;;8.10;92.00;;;;;;5076681;28;20056;-50
2023/12/18 02:27:57;;;;;;;27.35;12.75;;;8.10;92.00;;;;;;5076134;28;20024;-50
2023/12/18 02:30:24;;;;;;;21.15;10.98;;;8.10;92.00;;;;;;5075864;28;20103;-52
2023/12/18 02:32:52;;;;;;;26.27;10.77;;;8.10;92.00;;;;;;5075453;28;20036;-48
2023/12/18 02:35:20;;;;;;;24.80;10.77;;;8.10;92.00;;;;;;5075943;28;20071;-49
2023/12/18 02:37:47;;;;;;;22.33;11.25;;;8.10;92.00;;;;;;5076076;28;20024;-49
2023/12/18 02:40:13;;;;;;;22.35;11.18;;;8.10;92.10;;;;;;5076100;28;20031;-49
2023/12/18 02:42:40;;;;;;;20.38;9.98;;;8.10;92.00;;;;;;5075454;28;20349;-52
2023/12/18 02:45:07;;;;;;;22.00;11.48;;;8.10;92.00;;;;;;5075542;28;20040;-48
2023/12/18 02:47:34;;;;;;;22.13;11.27;;;8.10;92.00;;;;;;5075877;28;20473;-50
2023/12/18 02:50:02;;;;;;;21.33;11.30;;;8.10;92.10;;;;;;5075938;28;20068;-50
2023/12/18 02:52:29;;;;;;;20.42;10.13;;;8.10;92.20;;;;;;5075228;28;20036;-53
2023/12/18 02:54:56;;;;;;;21.77;11.52;;;8.10;92.20;;;;;;5057665;28;20450;-49
2023/12/18 02:57:25;;;;;;;24.50;11.27;;;8.10;92.10;;;;;;5072797;28;20041;-48
2023/12/18 02:59:51;;;;;;;24.02;13.68;;;8.10;92.20;;;;;;5075521;28;20070;-49
2023/12/18 03:02:18;;;;;;;29.10;11.00;;;8.10;92.20;;;;;;5075427;28;20024;-50
2023/12/18 03:04:45;;;;;;;27.17;11.95;;;8.10;92.30;;;;;;5074928;28;20043;-48
2023/12/18 03:07:12;;;;;;;17.67;11.05;;;8.10;92.20;;;;;;5071753;28;20048;-48
2023/12/18 03:09:38;;;;;;;27.55;11.02;;;8.10;92.30;;;;;;5056689;28;20056;-48
2023/12/18 03:12:05;;;;;;;19.77;10.38;;;8.10;92.30;;;;;;5075062;28;20442;-48
2023/12/18 03:14:32;;;;;;;21.95;12.13;;;8.10;92.40;;;;;;5074948;28;20028;-51
2023/12/18 03:17:00;;;;;;;24.48;11.25;;;8.10;92.30;;;;;;5057942;28;20029;-49
2023/12/18 03:19:27;;;;;;;21.10;12.07;;;8.10;92.30;;;;;;5074552;28;20349;-51
2023/12/18 03:21:56;;;;;;;22.63;11.07;;;8.10;92.40;;;;;;5074486;28;20029;-48
2023/12/18 03:24:24;;;;;;;25.57;14.20;;;8.10;92.40;;;;;;5088081;28;20032;-51
2023/12/18 03:26:51;;;;;;;22.45;11.32;;;8.10;92.40;;;;;;5095163;28;20368;-48
2023/12/18 03:29:17;;;;;;;22.50;10.63;;;8.20;92.50;;;;;;5093680;28;20043;-49
2023/12/18 03:31:43;;;;;;;20.42;11.18;;;8.10;92.40;;;;;;5056580;28;20040;-48
2023/12/18 03:34:08;;;;;;;28.23;11.50;;;8.10;92.50;;;;;;5074135;28;20024;-48
2023/12/18 03:36:35;;;;;;;24.75;13.50;;;8.10;92.50;;;;;;5074235;28;20056;-48
2023/12/18 03:39:02;;;;;;;30.77;13.20;;;8.10;92.60;;;;;;5074430;28;20098;-50
2023/12/18 03:41:29;;;;;;;20.02;12.40;;;8.10;92.50;;;;;;5074982;28;20102;-48
2023/12/18 03:43:55;;;;;;;17.55;10.65;;;8.10;92.50;;;;;;5074166;28;20021;-49
2023/12/18 03:46:22;;;;;;;26.25;11.90;;;8.10;92.50;;;;;;5074558;28;20323;-50
2023/12/18 03:48:49;;;;;;;24.70;11.13;;;8.10;92.50;;;;;;5074921;28;20028;-48
2023/12/18 03:51:17;;;;;;;21.75;11.10;;;8.10;92.60;;;;;;5074079;28;20067;-48
2023/12/18 03:53:44;;;;;;;26.05;13.63;;;8.10;92.60;;;;;;5074325;28;20602;-48
2023/12/18 03:56:09;;;;;;;22.00;11.52;;;8.10;92.60;;;;;;5073896;28;20045;-49
2023/12/18 03:58:36;;;;;;;20.13;11.15;;;8.10;92.60;;;;;;5074559;28;20429;-50
2023/12/18 04:01:02;;;;;;;18.48;11.00;;;8.10;92.50;;;;;;5074339;28;20081;-49
2023/12/18 04:03:29;;;;;;;22.05;11.07;;;8.10;92.60;;;;;;5073914;28;20032;-49
2023/12/18 04:05:56;;;;;;;23.17;12.02;;;8.10;92.50;;;;;;5074436;28;20028;-49
2023/12/18 04:08:21;;;;;;;23.52;12.05;;;8.10;92.50;;;;;;5073877;28;20381;-49
2023/12/18 04:10:47;;;;;;;18.58;11.35;;;8.10;92.60;;;;;;5073891;28;20032;-51
2023/12/18 04:13:14;;;;;;;23.05;11.82;;;8.10;92.50;;;;;;5074285;28;20743;-49
2023/12/18 04:15:42;;;;;;;22.00;11.60;;;8.10;92.50;;;;;;5056328;28;20023;-48
2023/12/18 04:18:10;;;;;;;24.67;11.48;;;8.10;92.50;;;;;;5074317;28;20454;-48
2023/12/18 04:20:36;;;;;;;25.83;11.00;;;8.20;92.50;;;;;;5074119;28;20036;-48
2023/12/18 04:23:04;;;;;;;26.63;11.98;;;8.10;92.50;;;;;;5075591;28;20032;-48
2023/12/18 04:25:32;;;;;;;25.52;13.02;;;8.10;92.50;;;;;;5094051;28;20020;-49
2023/12/18 04:27:58;;;;;;;18.02;10.25;;;8.20;92.50;;;;;;5074988;28;20453;-48
2023/12/18 04:30:25;;;;;;;24.92;12.60;;;8.20;92.50;;;;;;5074066;28;20044;-48
2023/12/18 04:32:51;;;;;;;29.63;11.95;;;8.10;92.50;;;;;;5071994;28;20370;-49
2023/12/18 04:35:18;;;;;;;26.73;11.32;;;8.10;92.50;;;;;;5073600;28;20033;-48
2023/12/18 04:37:46;;;;;;;21.83;10.82;;;8.20;92.50;;;;;;5055727;28;20029;-48
2023/12/18 04:40:13;;;;;;;20.67;10.73;;;8.20;92.60;;;;;;5073738;28;20488;-48
2023/12/18 04:42:40;;;;;;;25.35;11.13;;;8.20;92.50;;;;;;5073462;28;20056;-49
2023/12/18 04:45:11;;;;;;;20.85;10.70;;;8.20;92.40;;;;;;5073282;28;20354;-48
2023/12/18 04:47:38;;;;;;;24.80;10.95;;;8.20;92.40;;;;;;5073234;28;20025;-48
2023/12/18 04:50:07;;;;;;;25.05;12.68;;;8.20;92.30;;;;;;5060866;28;20028;-49
2023/12/18 04:52:34;;;;;;;19.10;10.50;;;8.20;92.30;;;;;;5072971;28;20064;-51
2023/12/18 04:55:02;;;;;;;28.35;12.68;;;8.20;92.30;;;;;;5073232;28;20377;-48
2023/12/18 04:57:31;;;;;;;28.45;12.15;;;8.20;92.30;;;;;;5072052;28;20024;-48
2023/12/18 05:00:00;;;;;;;18.92;10.23;;;8.30;92.20;;;;;;5073160;28;20533;-49
2023/12/18 05:02:28;;;;;;;24.45;11.02;;;8.20;92.20;;;;;;5072962;28;20423;-48
2023/12/18 05:04:55;;;;;;;22.23;11.02;;;8.20;92.20;;;;;;5072828;28;20036;-49
2023/12/18 05:07:21;;;;;;;18.55;10.95;;;8.30;92.30;;;;;;5073114;28;20047;-48
2023/12/18 05:09:50;;;;;;;24.20;10.13;;;8.30;92.20;;;;;;5073063;28;20446;-48
2023/12/18 05:12:18;;;;;;;19.90;10.85;;;8.30;92.20;;;;;;5072826;28;20103;-50
2023/12/18 05:14:46;;;;;;;18.50;10.70;;;8.30;92.20;;;;;;5073339;28;20439;-50
2023/12/18 05:17:13;;;;;;;20.88;10.45;;;8.20;92.30;;;;;;5073010;28;20029;-51
2023/12/18 05:19:38;;;;;;;25.73;11.82;;;8.20;92.30;;;;;;5072739;28;20021;-51
2023/12/18 05:22:07;;;;;;;23.27;13.07;;;8.30;92.30;;;;;;5073083;28;20033;-48
2023/12/18 05:24:34;;;;;;;18.95;11.13;;;8.30;92.30;;;;;;5087423;28;20046;-50
2023/12/18 05:27:01;;;;;;;24.73;12.98;;;8.30;92.30;;;;;;5092918;28;20035;-48
2023/12/18 05:29:28;;;;;;;20.55;11.70;;;8.30;92.20;;;;;;5078781;28;20025;-50
2023/12/18 05:31:53;;;;;;;20.25;11.48;;;8.20;92.30;;;;;;5072344;28;20064;-48
2023/12/18 05:34:20;;;;;;;17.63;10.77;;;8.20;92.40;;;;;;5073170;28;20064;-48
2023/12/18 05:36:49;;;;;;;22.00;12.02;;;8.20;92.40;;;;;;5054787;28;20027;-48
2023/12/18 05:39:15;;;;;;;21.45;11.00;;;8.20;92.40;;;;;;5054589;28;20013;-48
2023/12/18 05:41:42;;;;;;;28.30;12.68;;;8.20;92.40;;;;;;5071927;28;20037;-48
2023/12/18 05:44:09;;;;;;;25.42;11.98;;;8.30;92.40;;;;;;5074343;28;20036;-48
2023/12/18 05:46:36;;;;;;;25.42;11.23;;;8.30;92.40;;;;;;5076112;28;20107;-49
2023/12/18 05:49:03;;;;;;;25.92;11.75;;;8.30;92.50;;;;;;5076243;28;20039;-48
2023/12/18 05:51:30;;;;;;;25.63;12.25;;;8.30;92.40;;;;;;5076576;28;20021;-48
2023/12/18 05:53:57;;;;;;;23.10;11.70;;;8.20;92.50;;;;;;5058131;28;20051;-49
2023/12/18 05:56:24;;;;;;;17.63;11.68;;;8.30;92.50;;;;;;5076594;28;20031;-49
2023/12/18 05:58:52;;;;;;;24.42;12.40;;;8.30;92.50;;;;;;5076406;28;20103;-48
2023/12/18 06:01:19;;;;;;;21.90;11.32;;;8.20;92.50;;;;;;5077102;28;20070;-49
2023/12/18 06:03:46;;;;;;;25.58;12.85;;;8.30;92.60;;;;;;5058546;28;20029;-50
2023/12/18 06:06:14;;;;;;;18.63;11.30;;;8.30;92.50;;;;;;5076789;28;20036;-50
2023/12/18 06:08:41;;;;;;;22.85;11.10;;;8.20;92.50;;;;;;5076182;28;20040;-50
2023/12/18 06:11:08;;;;;;;23.40;10.63;;;8.30;92.60;;;;;;5076251;28;20472;-48
2023/12/18 06:13:35;;;;;;;25.10;12.13;;;8.30;92.50;;;;;;5076266;28;20032;-49
2023/12/18 06:16:02;;;;;;;18.80;11.13;;;8.30;92.60;;;;;;5058435;28;20255;-48
2023/12/18 06:18:30;;;;;;;20.23;11.55;;;8.30;92.60;;;;;;5075886;28;20017;-49
2023/12/18 06:21:03;;;;;;;24.48;10.98;;;8.30;92.50;;;;;;5076230;28;20032;-48
2023/12/18 06:23:30;;;;;;;21.88;11.00;;;8.30;92.40;;;;;;5099561;28;20046;-48
2023/12/18 06:25:57;;;;;;;23.25;11.55;;;8.40;92.50;;;;;;5096576;28;20028;-48
2023/12/18 06:28:24;;;;;;;21.15;12.05;;;8.40;92.40;;;;;;5075977;28;20036;-48
2023/12/18 06:30:49;;;;;;;20.38;10.90;;;8.40;92.40;;;;;;5075844;28;20499;-48
2023/12/18 06:33:17;;;;;;;22.27;11.45;;;8.40;92.50;;;;;;5075606;28;20029;-50
2023/12/18 06:35:46;;;;;;;24.67;11.05;;;8.40;92.50;;;;;;5075457;28;20032;-48
2023/12/18 06:38:13;;;;;;;24.55;11.68;;;8.40;92.50;;;;;;5075678;28;20023;-48
2023/12/18 06:40:40;;;;;;;17.08;10.27;;;8.30;92.50;;;;;;5058572;28;20029;-49
2023/12/18 06:43:06;;;;;;;28.67;12.30;;;8.40;92.50;;;;;;5075792;28;20055;-49
2023/12/18 06:45:32;;;;;;;23.10;11.65;;;8.40;92.50;;;;;;5075630;28;20024;-49
2023/12/18 06:47:58;;;;;;;20.42;11.65;;;8.40;92.50;;;;;;5075272;28;20361;-48
2023/12/18 06:50:25;;;;;;;21.25;11.57;;;8.40;92.50;;;;;;5075434;28;20028;-49
2023/12/18 06:52:53;;;;;;;21.27;12.65;;;8.40;92.50;;;;;;5055539;28;20051;-50
2023/12/18 06:55:21;;;;;;;23.33;11.63;;;8.40;92.50;;;;;;5075399;28;20039;-48
2023/12/18 06:57:49;;;;;;;25.63;12.23;;;8.40;92.60;;;;;;5075603;28;20025;-48
2023/12/18 07:00:16;;;;;;;23.27;11.35;;;8.40;92.50;;;;;;5074913;28;20033;-48
2023/12/18 07:02:43;;;;;;;21.67;12.05;;;8.40;92.60;;;;;;5056578;28;20020;-49
2023/12/18 07:05:10;;;;;;;28.52;12.75;;;8.40;92.60;;;;;;5074725;28;20476;-51
2023/12/18 07:07:37;;;;;;;27.00;12.50;;;8.40;92.60;;;;;;5074345;28;20328;-50
2023/12/18 07:10:09;;;;;;;20.30;11.88;;;8.40;92.60;;;;;;5074743;28;20438;-51
2023/12/18 07:12:36;;;;;;;25.38;13.05;;;8.40;92.60;;;;;;5074440;28;20040;-49
2023/12/18 07:15:06;;;;;;;21.42;12.35;;;8.40;92.60;;;;;;5074847;28;20492;-51
2023/12/18 07:17:33;;;;;;;27.73;13.02;;;8.40;92.60;;;;;;5056574;28;20070;-48
2023/12/18 07:20:01;;;;;;;23.48;12.13;;;8.40;92.60;;;;;;5056943;28;20096;-48
2023/12/18 07:22:29;;;;;;;26.73;14.27;;;8.40;92.60;;;;;;5074501;28;20361;-48
2023/12/18 07:24:57;;;;;;;24.20;13.98;;;8.40;92.60;;;;;;5080832;28;20024;-48
2023/12/18 07:27:24;;;;;;;30.33;13.43;;;8.40;92.60;;;;;;5074738;28;20090;-49
2023/12/18 07:29:50;;;;;;;23.02;14.73;;;8.40;92.60;;;;;;5074702;28;20331;-49
2023/12/18 07:32:16;;;;;;;35.47;15.85;;;8.40;92.60;;;;;;5063579;28;20021;-49
2023/12/18 07:34:45;;;;;;;24.75;14.35;;;8.40;92.60;;;;;;5073598;28;20064;-48
2023/12/18 07:37:13;;;;;;;28.25;14.70;;;8.40;92.60;;;;;;5074747;28;20021;-48
2023/12/18 07:39:40;;;;;;;28.13;14.20;;;8.40;92.60;;;;;;5074830;28;20343;-48
2023/12/18 07:42:05;;;;;;;27.73;15.85;;;8.40;92.60;;;;;;5056927;28;20029;-48
2023/12/18 07:44:32;;;;;;;32.20;14.68;;;8.40;92.60;;;;;;5056659;28;20035;-48
2023/12/18 07:46:58;;;;;;;34.55;15.35;;;8.40;92.60;;;;;;5074207;28;20054;-50
2023/12/18 07:49:27;;;;;;;25.38;15.43;;;8.40;92.60;;;;;;5074899;28;20067;-50
2023/12/18 07:51:54;;;;;;;28.00;14.98;;;8.40;92.60;;;;;;5074269;28;20063;-48
2023/12/18 07:54:19;;;;;;;25.83;14.45;;;8.40;92.60;;;;;;5073763;28;20500;-48
2023/12/18 07:56:46;;;;;;;31.45;15.82;;;8.40;92.60;;;;;;5073532;28;20060;-49
2023/12/18 07:59:15;;;;;;;38.35;15.65;;;8.40;92.60;;;;;;5073183;28;20063;-49
2023/12/18 08:01:41;;;;;;;;;;;8.40;92.70;;;;;;5074078;28;20070;-49
2023/12/18 08:04:09;;;;;;;27.42;13.98;;;8.40;92.70;;;;;;5074042;28;19909;-52
2023/12/18 08:06:36;;;;;;;23.33;14.82;;;8.40;92.70;;;;;;5054865;28;20032;-48
2023/12/18 08:09:04;;;;;;;25.75;13.77;;;8.40;92.80;;;;;;5073099;28;20056;-53
2023/12/18 08:11:30;;;;;;;28.75;13.75;;;8.40;92.80;;;;;;5073506;28;20404;-49
2023/12/18 08:13:57;;;;;;;29.95;15.75;;;8.40;92.90;;;;;;5073442;28;20029;-51
2023/12/18 08:16:24;;;;;;;34.63;15.85;;;8.40;92.90;;;;;;5073716;28;20052;-49
2023/12/18 08:18:51;;;;;;;28.38;14.10;;;8.40;92.90;;;;;;5074121;28;20028;-53
2023/12/18 08:21:19;;;;;;;26.55;15.05;;;8.40;92.90;;;;;;5056240;28;20373;-48
2023/12/18 08:23:46;;;;;;;29.53;15.10;;;8.40;92.90;;;;;;5082630;28;20416;-52
2023/12/18 08:26:13;;;;;;;30.23;14.13;;;8.40;92.90;;;;;;5093520;28;20270;-50
2023/12/18 08:28:45;;;;;;;26.83;13.85;;;8.40;92.90;;;;;;5082633;28;20405;-48
2023/12/18 08:31:12;;;;;;;30.10;16.02;;;8.40;92.90;;;;;;5073766;28;20055;-49
2023/12/18 08:33:42;;;;;;;33.38;14.70;;;8.40;92.90;;;;;;5055919;28;20024;-49
2023/12/18 08:36:08;;;;;;;26.95;14.50;;;8.50;92.90;;;;;;5073630;28;20319;-49
2023/12/18 08:38:37;;;;;;;30.75;15.02;;;8.50;92.90;;;;;;5072967;28;20109;-49
2023/12/18 08:41:03;;;;;;;26.55;14.65;;;8.50;92.90;;;;;;5072802;28;20327;-51
2023/12/18 08:43:31;;;;;;;32.95;16.73;;;8.50;92.90;;;;;;5073128;28;20037;-49
2023/12/18 08:45:59;;;;;;;27.17;13.82;;;8.50;92.90;;;;;;5055326;28;20059;-48
2023/12/18 08:48:27;;;;;;;26.63;14.98;;;8.50;92.80;;;;;;5073625;28;20512;-49
2023/12/18 08:50:54;;;;;;;30.52;15.32;;;8.50;92.80;;;;;;5073271;28;20040;-51
2023/12/18 08:53:19;;;;;;;32.30;15.77;;;8.50;92.80;;;;;;5073427;28;20039;-49
2023/12/18 08:55:46;;;;;;;29.15;15.38;;;8.50;92.80;;;;;;5073183;28;20025;-49
2023/12/18 08:58:14;;;;;;;38.42;17.13;;;8.50;92.70;;;;;;5073738;28;20124;-48
2023/12/18 09:00:44;;;;;;;28.20;15.43;;;8.50;92.80;;;;;;5073205;28;20032;-49
2023/12/18 09:03:11;;;;;;;29.77;14.90;;;8.50;92.70;;;;;;5073463;28;20077;-49
2023/12/18 09:05:38;;;;;;;29.52;15.43;;;8.50;92.80;;;;;;5073067;28;20052;-48
2023/12/18 09:08:05;;;;;;;31.75;17.55;;;8.50;92.80;;;;;;5092757;28;20063;-48
2023/12/18 09:10:33;;;;;;;35.03;15.52;;;8.60;92.80;;;;;;5075411;28;20032;-52
2023/12/18 09:13:01;;;;;;;28.67;14.40;;;8.60;92.80;;;;;;5087674;28;20051;-48
2023/12/18 09:15:27;;;;;;;31.88;16.27;;;8.60;92.80;;;;;;5073227;28;20023;-53
2023/12/18 09:17:54;;;;;;;25.77;14.07;;;8.60;92.80;;;;;;5072315;28;20036;-51
2023/12/18 09:20:23;;;;;;;32.53;15.32;;;8.60;92.80;;;;;;5072450;28;20032;-48
2023/12/18 09:22:50;;;;;;;43.63;17.05;;;8.60;92.70;;;;;;5071590;28;20052;-51
2023/12/18 09:25:18;;;;;;;28.10;15.30;;;8.60;92.60;;;;;;5091206;28;20042;-50
2023/12/18 09:27:45;;;;;;;27.70;15.05;;;8.60;92.60;;;;;;5072957;28;20024;-52
2023/12/18 09:30:13;;;;;;;35.13;18.58;;;8.60;92.60;;;;;;5072096;28;20044;-50
2023/12/18 09:32:40;;;;;;;29.73;16.10;;;8.60;92.70;;;;;;5072361;28;20040;-48
2023/12/18 09:35:08;;;;;;;39.55;17.95;;;8.60;92.60;;;;;;5072456;28;20024;-48
2023/12/18 09:37:34;;;;;;;32.10;17.63;;;8.60;92.50;;;;;;5072667;28;20025;-48
2023/12/18 09:40:02;;;;;;;33.10;16.60;;;8.60;92.60;;;;;;5072669;28;20438;-49
2023/12/18 09:42:29;;;;;;;43.47;19.58;;;8.60;92.60;;;;;;5072811;28;20408;-48
2023/12/18 09:44:59;;;;;;;33.95;16.98;;;8.60;92.70;;;;;;5071440;28;20037;-51
2023/12/18 09:47:27;;;;;;;41.10;21.05;;;8.60;92.70;;;;;;5072363;28;20043;-49
2023/12/18 09:49:56;;;;;;;29.75;15.20;;;8.60;92.70;;;;;;5072607;28;20393;-54
2023/12/18 09:52:22;;;;;;;33.83;17.60;;;8.60;92.70;;;;;;5072615;28;20060;-50
2023/12/18 09:54:52;;;;;;;33.33;16.02;;;8.60;92.60;;;;;;5072251;28;20343;-49
2023/12/18 09:57:19;;;;;;;;;;;8.60;92.60;;;;;;5053147;28;20063;-49
2023/12/18 09:59:49;;;;;;;32.28;17.25;;;8.60;92.60;;;;;;5072747;28;19915;-51
2023/12/18 10:02:17;;;;;;;32.60;17.23;;;8.60;92.60;;;;;;5073093;28;20048;-48
2023/12/18 10:04:43;;;;;;;40.90;19.35;;;8.60;92.70;;;;;;5037911;28;20074;-52
2023/12/18 10:07:11;;;;;;;32.05;17.50;;;8.70;92.70;;;;;;5072293;28;20028;-49
2023/12/18 10:09:37;;;;;;;37.38;19.33;;;8.70;92.60;;;;;;5071586;28;20055;-51
2023/12/18 10:12:05;;;;;;;33.42;18.58;;;8.70;92.60;;;;;;5071987;28;20036;-48
2023/12/18 10:14:31;;;;;;;37.55;17.80;;;8.70;92.60;;;;;;5071595;28;20445;-49
2023/12/18 10:16:59;;;;;;;38.30;19.45;;;8.70;92.60;;;;;;5071964;28;20027;-50
2023/12/18 10:19:29;;;;;;;40.13;18.65;;;8.70;92.60;;;;;;5071694;28;20033;-52
2023/12/18 10:21:56;;;;;;;35.22;19.58;;;8.80;92.50;;;;;;5071610;28;20028;-49
2023/12/18 10:24:23;;;;;;;33.38;18.08;;;8.80;92.40;;;;;;5081844;28;20038;-48
2023/12/18 10:26:49;;;;;;;34.20;18.58;;;8.80;92.40;;;;;;5072025;28;20457;-49
2023/12/18 10:29:16;;;;;;;30.00;18.02;;;8.80;92.40;;;;;;5073133;28;20032;-49
2023/12/18 10:31:44;;;;;;;34.50;18.98;;;8.70;92.30;;;;;;5075683;28;20458;-50
2023/12/18 10:34:12;;;;;;;35.60;18.50;;;8.80;92.30;;;;;;5058336;28;20036;-52
2023/12/18 10:36:41;;;;;;;35.50;18.25;;;8.80;92.40;;;;;;5057902;28;20664;-52
2023/12/18 10:39:12;;;;;;;37.70;18.90;;;8.80;92.40;;;;;;5058059;28;20037;-48
2023/12/18 10:41:59;;;;;;;31.30;18.65;;;8.80;92.20;;;;;;5059290;28;20098;-50
2023/12/18 10:44:29;;;;;;;35.40;21.02;;;8.80;92.10;;;;;;5058392;28;20064;-48
2023/12/18 10:46:59;;;;;;;35.78;21.42;;;8.70;92.10;;;;;;5075777;28;20384;-51
2023/12/18 10:49:28;;;;;;;30.60;18.20;;;8.70;92.10;;;;;;5057595;28;20072;-49
2023/12/18 10:51:56;;;;;;;43.40;20.92;;;8.70;92.20;;;;;;5042568;28;20036;-49
2023/12/18 10:54:24;;;;;;;36.55;18.67;;;8.70;92.10;;;;;;5075513;28;20063;-49
2023/12/18 10:56:52;;;;;;;40.53;20.98;;;8.70;92.30;;;;;;5075361;28;20603;-48
2023/12/18 10:59:22;;;;;;;37.60;20.98;;;8.70;92.20;;;;;;5057701;28;20040;-52
2023/12/18 11:01:49;;;;;;;36.05;19.58;;;8.70;92.30;;;;;;5075480;28;20037;-48
2023/12/18 11:04:18;;;;;;;30.20;19.27;;;8.70;92.30;;;;;;5057858;28;20055;-50
2023/12/18 11:06:47;;;;;;;40.40;22.00;;;8.60;92.40;;;;;;5057936;28;20033;-51
2023/12/18 11:09:14;;;;;;;44.08;21.13;;;8.60;92.40;;;;;;5056771;28;20048;-50
2023/12/18 11:11:41;;;;;;;34.63;21.40;;;8.60;92.40;;;;;;5075458;28;20396;-48
2023/12/18 11:14:58;;;;;;;36.40;20.77;;;8.60;92.40;;;;;;5057383;28;20105;-51
2023/12/18 11:17:34;;;;;;;36.88;21.13;;;8.60;92.50;;;;;;5041026;28;20043;-50
2023/12/18 11:20:26;;;;;;;34.95;21.48;;;8.60;92.50;;;;;;5075420;28;20017;-48
2023/12/18 11:22:57;;;;;;;37.47;20.85;;;8.60;92.60;;;;;;5075398;28;20033;-50
2023/12/18 11:25:41;;;;;;;39.75;23.25;;;8.60;92.60;;;;;;5077502;28;20041;-50
2023/12/18 11:28:09;;;;;;;38.75;21.10;;;8.50;92.60;;;;;;5074921;28;20351;-50
2023/12/18 11:30:43;;;;;;;45.58;22.58;;;8.50;92.70;;;;;;5074807;28;20038;-48
2023/12/18 11:33:13;;;;;;;33.85;23.40;;;8.60;92.70;;;;;;5074854;28;20021;-48
2023/12/18 11:35:45;;;;;;;38.17;22.25;;;8.60;92.70;;;;;;5074387;28;20028;-50
2023/12/18 11:38:20;;;;;;;46.65;24.58;;;8.60;92.70;;;;;;5071842;28;20064;-49
2023/12/18 11:40:48;;;;;;;38.40;25.13;;;8.60;92.60;;;;;;5055421;28;20029;-48
2023/12/18 11:43:34;;;;;;;38.53;23.05;;;8.50;92.70;;;;;;5038840;28;20039;-49
2023/12/18 11:46:01;;;;;;;44.60;22.33;;;8.60;92.70;;;;;;5074207;28;20032;-51
2023/12/18 11:48:28;;;;;;;32.35;21.50;;;8.50;92.70;;;;;;5073619;28;20446;-51
2023/12/18 11:50:53;;;;;;;39.92;23.42;;;8.60;92.80;;;;;;5057743;28;20082;-48
2023/12/18 11:53:22;;;;;;;33.45;21.77;;;8.60;92.80;;;;;;5073398;28;20331;-48
2023/12/18 11:55:50;;;;;;;36.78;22.33;;;8.50;92.90;;;;;;5056260;28;20457;-48
2023/12/18 11:58:26;;;;;;;36.13;23.23;;;8.60;92.90;;;;;;5062416;28;20036;-48
2023/12/18 12:00:55;;;;;;;38.92;22.52;;;8.50;92.90;;;;;;5051375;28;20097;-48
2023/12/18 12:03:25;;;;;;;31.85;21.38;;;8.60;93.00;;;;;;5056459;28;20120;-50
2023/12/18 12:05:54;;;;;;;36.33;23.13;;;8.60;93.10;;;;;;5073243;28;20040;-50
2023/12/18 12:08:20;;;;;;;41.72;25.33;;;8.60;93.20;;;;;;5073543;28;20073;-50
2023/12/18 12:10:51;;;;;;;38.33;23.70;;;8.50;93.20;;;;;;5073767;28;20032;-48
2023/12/18 12:13:31;;;;;;;39.13;22.80;;;8.60;93.30;;;;;;5073714;28;20032;-48
2023/12/18 12:16:03;;;;;;;40.25;21.80;;;8.60;93.30;;;;;;5056148;28;20024;-47
2023/12/18 12:18:30;;;;;;;43.00;23.98;;;8.60;93.30;;;;;;5073909;28;20580;-46
2023/12/18 12:20:56;;;;;;;43.90;24.70;;;8.60;93.40;;;;;;5074203;28;20488;-46
2023/12/18 12:23:24;;;;;;;33.22;23.45;;;8.60;93.40;;;;;;5078641;28;20039;-47
2023/12/18 12:25:57;;;;;;;32.78;23.17;;;8.50;93.50;;;;;;5096663;28;20460;-48
2023/12/18 12:28:24;;;;;;;37.05;22.75;;;8.60;93.50;;;;;;5096273;28;20047;-44
2023/12/18 12:30:51;;;;;;;34.03;22.45;;;8.50;93.60;;;;;;5088044;28;20097;-48
2023/12/18 12:33:19;;;;;;;38.85;25.48;;;8.60;93.70;;;;;;5073132;28;20035;-44
2023/12/18 12:35:46;;;;;;;36.60;23.02;;;8.60;93.70;;;;;;5073410;28;20017;-46
2023/12/18 12:38:19;;;;;;;40.15;22.65;;;8.50;93.70;;;;;;5073696;28;20036;-47
2023/12/18 12:40:46;;;;;;;31.55;21.60;;;8.60;93.80;;;;;;5073594;28;20025;-45